Time;durP1;ratioP1;P1;durP2;ratioP2;P2;SDS_P1;SDS_P2;PMS_P1;PMS_P2;Temp;Humidity;BMP_temperature;BMP_pressure;BME280_temperature;BME280_humidity;BME280_pressure;Samples;Min_cycle;Max_cycle;Signal;HPM_P1;HPM_P2
2023/03/03 00:01:17;;;;;;;31.15;13.07;;;;;;;-2.07;100.00;102698.69;5073455;28;20060;-75
2023/03/03 00:03:43;;;;;;;30.85;12.38;;;;;;;-2.06;100.00;102696.94;5073492;28;20033;-75
2023/03/03 00:06:11;;;;;;;33.53;13.35;;;;;;;-2.05;100.00;102696.06;5054906;28;20037;-75
2023/03/03 00:08:37;;;;;;;31.95;13.68;;;;;;;-2.05;100.00;102709.09;5073606;28;20522;-76
2023/03/03 00:11:05;;;;;;;35.75;14.52;;;;;;;-2.05;100.00;102703.88;5055089;28;20124;-76
2023/03/03 00:13:31;;;;;;;31.27;13.15;;;;;;;-2.04;100.00;102696.03;5073372;28;20425;-76
2023/03/03 00:16:21;;;;;;;38.22;14.32;;;;;;;-2.08;100.00;102707.38;5072588;28;20033;-75
2023/03/03 00:18:47;;;;;;;38.22;13.73;;;;;;;-2.07;100.00;102697.81;5073125;28;20532;-76
2023/03/03 00:21:21;;;;;;;34.67;12.35;;;;;;;-2.08;100.00;102703.91;5073101;28;20089;-75
2023/03/03 00:23:46;;;;;;;28.67;11.90;;;;;;;-2.05;100.00;102711.72;5073884;28;20028;-77
2023/03/03 00:26:33;;;;;;;27.65;12.55;;;;;;;-2.05;100.00;102709.09;5073200;28;20492;-77
2023/03/03 00:29:00;;;;;;;28.52;11.77;;;;;;;-2.02;100.00;102715.16;5073246;28;20103;-75
2023/03/03 00:31:32;;;;;;;27.65;11.27;;;;;;;-1.94;100.00;102715.13;5072877;28;20043;-76
2023/03/03 00:34:23;;;;;;;31.92;11.55;;;;;;;-1.91;100.00;102707.25;5073210;28;20106;-77
2023/03/03 00:36:53;;;;;;;26.13;10.77;;;;;;;-1.93;100.00;102708.13;5072640;28;20066;-76
2023/03/03 00:39:34;;;;;;;27.35;11.60;;;;;;;-1.92;100.00;102702.91;5054503;28;20064;-77
2023/03/03 00:42:03;;;;;;;28.63;10.70;;;;;;;-1.90;100.00;102708.09;5072594;28;20025;-76
2023/03/03 00:44:40;;;;;;;32.00;10.25;;;;;;;-1.92;100.00;102713.34;5072750;28;20086;-76
2023/03/03 00:47:22;;;;;;;24.33;10.00;;;;;;;-1.85;100.00;102709.81;5072733;28;20032;-76
2023/03/03 00:49:48;;;;;;;23.33;10.15;;;;;;;-1.79;100.00;102709.75;5073032;28;20028;-76
2023/03/03 00:52:17;;;;;;;25.63;9.85;;;;;;;-1.75;100.00;102704.50;5072537;28;20033;-77
2023/03/03 00:54:42;;;;;;;18.30;9.73;;;;;;;-1.75;100.00;102713.19;5072912;28;20038;-76
2023/03/03 00:57:08;;;;;;;24.05;11.13;;;;;;;-1.70;100.00;102710.53;5072587;28;20033;-76
2023/03/03 00:59:33;;;;;;;21.27;9.75;;;;;;;-1.68;100.00;102709.66;5072749;28;20044;-77
2023/03/03 01:01:59;;;;;;;25.92;9.13;;;;;;;-1.70;100.00;102710.53;5072290;28;20031;-77
2023/03/03 01:04:24;;;;;;;22.30;9.32;;;;;;;-1.72;100.00;102707.94;5072404;28;20029;-76
2023/03/03 01:06:50;;;;;;;24.67;8.93;;;;;;;-1.74;100.00;102712.31;5075842;28;20534;-76
2023/03/03 01:09:15;;;;;;;20.65;8.82;;;;;;;-1.75;100.00;102710.56;5075842;28;20033;-77
2023/03/03 01:11:41;;;;;;;19.00;8.95;;;;;;;-1.73;100.00;102708.84;5057954;28;20120;-76
2023/03/03 01:14:06;;;;;;;24.50;8.48;;;;;;;-1.73;100.00;102705.34;5076126;28;20029;-76
2023/03/03 01:16:33;;;;;;;18.20;8.63;;;;;;;-1.72;100.00;102710.53;5076262;28;20044;-76
2023/03/03 01:18:58;;;;;;;17.05;8.63;;;;;;;-1.67;100.00;102713.09;5076088;28;20035;-76
2023/03/03 01:21:24;;;;;;;16.80;8.38;;;;;;;-1.68;100.00;102714.88;5076499;28;20033;-76
2023/03/03 01:23:49;;;;;;;16.67;8.38;;;;;;;-1.65;100.00;102717.44;5057697;28;20028;-76
2023/03/03 01:26:15;;;;;;;16.33;8.65;;;;;;;-1.60;100.00;102709.56;5076170;28;20060;-78
2023/03/03 01:28:40;;;;;;;16.30;8.55;;;;;;;-1.57;100.00;102719.13;5058139;28;20111;-76
2023/03/03 01:31:05;;;;;;;15.90;7.40;;;;;;;-1.59;100.00;102711.31;5076262;28;20032;-75
2023/03/03 01:33:32;;;;;;;16.48;8.57;;;;;;;-1.63;100.00;102714.81;5075457;28;20060;-76
2023/03/03 01:35:58;;;;;;;20.35;8.40;;;;;;;-1.62;100.00;102722.63;5075456;28;20024;-76
2023/03/03 01:38:23;;;;;;;17.27;8.77;;;;;;;-1.61;100.00;102715.69;5075589;28;20028;-76
2023/03/03 01:40:57;;;;;;;15.98;8.63;;;;;;;-1.61;100.00;102715.69;5075639;28;20038;-76
2023/03/03 01:43:25;;;;;;;24.13;9.57;;;;;;;-1.56;100.00;102713.88;5075586;28;20035;-76
2023/03/03 01:45:50;;;;;;;21.90;9.15;;;;;;;-1.56;100.00;102720.88;5075584;28;20064;-76
2023/03/03 01:48:37;;;;;;;15.52;8.90;;;;;;;-1.62;100.00;102717.41;5075468;28;20085;-77
2023/03/03 01:51:14;;;;;;;18.63;8.70;;;;;;;-1.66;100.00;102717.47;5075564;28;20040;-76
2023/03/03 01:53:49;;;;;;;19.17;8.55;;;;;;;-1.68;100.00;102716.63;5075751;28;20024;-77
2023/03/03 01:56:15;;;;;;;16.77;9.40;;;;;;;-1.68;100.00;102711.41;5075312;28;20039;-75
2023/03/03 01:58:45;;;;;;;18.38;9.65;;;;;;;-1.66;100.00;102717.47;5075340;28;20033;-75
2023/03/03 02:01:15;;;;;;;23.60;9.93;;;;;;;-1.73;100.00;102710.56;5075329;28;20119;-75
2023/03/03 02:03:42;;;;;;;21.10;9.27;;;;;;;-1.80;100.00;102718.44;5074982;28;20042;-76
2023/03/03 02:06:13;;;;;;;18.75;10.27;;;;;;;-1.83;100.00;102715.00;5074919;28;20101;-76
2023/03/03 02:08:47;;;;;;;17.90;9.35;;;;;;;-1.85;100.00;102712.41;5074736;28;20081;-76
2023/03/03 02:11:13;;;;;;;30.55;10.68;;;;;;;-1.86;100.00;102712.44;5075458;28;20033;-76
2023/03/03 02:13:38;;;;;;;20.88;10.35;;;;;;;-1.88;100.00;102708.94;5075102;28;20161;-77
2023/03/03 02:16:04;;;;;;;16.83;8.88;;;;;;;-1.91;100.00;102708.97;5074865;28;20037;-76
2023/03/03 02:18:29;;;;;;;28.23;9.50;;;;;;;-1.91;100.00;102703.75;5057347;28;20033;-77
2023/03/03 02:21:02;;;;;;;22.55;9.57;;;;;;;-1.96;100.00;102712.50;5057015;28;20461;-77
2023/03/03 02:23:38;;;;;;;19.52;9.32;;;;;;;-2.01;100.00;102703.84;5075172;28;20024;-75
2023/03/03 02:26:05;;;;;;;22.70;9.85;;;;;;;-2.04;100.00;102713.44;5074418;28;20032;-75
2023/03/03 02:28:33;;;;;;;27.90;8.63;;;;;;;-2.08;100.00;102707.38;5074452;28;20036;-76
2023/03/03 02:30:59;;;;;;;19.08;9.93;;;;;;;-2.14;100.00;102708.28;5074776;28;20033;-75
2023/03/03 02:33:26;;;;;;;21.85;9.68;;;;;;;-2.17;100.00;102708.31;5074917;28;20055;-76
2023/03/03 02:35:51;;;;;;;16.30;8.82;;;;;;;-2.21;100.00;102705.72;5074661;28;20028;-76
2023/03/03 02:38:28;;;;;;;20.58;9.02;;;;;;;-2.20;100.00;102712.69;5056673;28;20036;-75
2023/03/03 02:41:05;;;;;;;19.80;8.80;;;;;;;-2.16;100.00;102706.59;5074556;28;20107;-76
2023/03/03 02:43:49;;;;;;;21.92;9.00;;;;;;;-2.14;100.00;102704.81;5074220;28;20492;-76
2023/03/03 02:46:16;;;;;;;21.08;8.93;;;;;;;-2.15;100.00;102697.84;5056910;28;20044;-76
2023/03/03 02:48:41;;;;;;;14.68;8.30;;;;;;;-2.20;100.00;102703.09;5075209;28;20037;-76
2023/03/03 02:51:06;;;;;;;18.33;9.27;;;;;;;-2.26;100.00;102703.16;5074563;28;20074;-76
2023/03/03 02:53:32;;;;;;;16.38;8.23;;;;;;;-2.32;100.00;102695.38;5074159;28;20393;-76
2023/03/03 02:55:57;;;;;;;15.52;8.10;;;;;;;-2.34;100.00;102694.53;5039588;28;20433;-77
2023/03/03 02:58:23;;;;;;;19.00;8.90;;;;;;;-2.38;100.00;102695.44;5074170;28;20052;-77
2023/03/03 03:00:48;;;;;;;17.52;9.32;;;;;;;-2.44;100.00;102692.88;5055840;28;20084;-76
2023/03/03 03:03:13;;;;;;;15.70;7.93;;;;;;;-2.46;100.00;102699.81;5073771;28;20047;-76
2023/03/03 03:05:39;;;;;;;14.45;7.65;;;;;;;-2.52;100.00;102696.38;5074172;28;20511;-77
2023/03/03 03:08:04;;;;;;;14.15;7.47;;;;;;;-2.54;100.00;102699.88;5074272;28;20041;-76
2023/03/03 03:10:30;;;;;;;21.73;7.78;;;;;;;-2.58;100.00;102696.41;5073477;28;20131;-77
2023/03/03 03:12:55;;;;;;;16.95;7.65;;;;;;;-2.59;100.00;102705.09;5073768;28;20463;-76
2023/03/03 03:15:20;;;;;;;16.85;8.30;;;;;;;-2.58;100.00;102701.63;5073726;28;20021;-77
2023/03/03 03:17:46;;;;;;;17.88;7.60;;;;;;;-2.57;100.00;102703.34;5055566;28;20043;-76
2023/03/03 03:20:12;;;;;;;12.30;7.43;;;;;;;-2.62;100.00;102699.06;5073851;28;20373;-76
2023/03/03 03:22:37;;;;;;;12.82;7.03;;;;;;;-2.68;100.00;102700.81;5055947;28;20036;-76
2023/03/03 03:25:03;;;;;;;17.33;7.65;;;;;;;-2.72;100.00;102701.69;5074009;28;20039;-76
2023/03/03 03:27:28;;;;;;;10.25;6.55;;;;;;;-2.73;100.00;102702.59;5055515;28;20032;-77
2023/03/03 03:29:54;;;;;;;14.35;7.43;;;;;;;-2.74;100.00;102703.44;5073134;28;20036;-75
2023/03/03 03:32:19;;;;;;;17.67;6.80;;;;;;;-2.76;100.00;102707.81;5073326;28;20043;-76
2023/03/03 03:34:44;;;;;;;13.50;6.65;;;;;;;-2.78;100.00;102703.47;5073526;28;20028;-75
2023/03/03 03:37:10;;;;;;;12.55;6.80;;;;;;;-2.84;100.00;102705.25;5073274;28;20484;-75
2023/03/03 03:39:35;;;;;;;13.73;6.45;;;;;;;-2.88;100.00;102706.13;5055560;28;20380;-76
2023/03/03 03:42:00;;;;;;;12.05;6.38;;;;;;;-2.89;100.00;102709.59;5073770;28;20380;-75
2023/03/03 03:44:26;;;;;;;13.68;6.32;;;;;;;-2.90;100.00;102710.47;5055977;28;20032;-75
2023/03/03 03:46:52;;;;;;;12.77;6.10;;;;;;;-2.93;100.00;102712.22;5073724;28;20032;-75
2023/03/03 03:49:17;;;;;;;8.93;5.47;;;;;;;-2.97;100.00;102714.00;5073435;28;20028;-76
2023/03/03 03:51:42;;;;;;;8.52;5.68;;;;;;;-2.95;100.00;102712.22;5072830;28;20040;-76
2023/03/03 03:54:08;;;;;;;11.88;5.78;;;;;;;-2.97;100.00;102713.09;5054963;28;20025;-76
2023/03/03 03:56:33;;;;;;;10.02;5.45;;;;;;;-3.02;100.00;102710.53;5073411;28;20083;-76
2023/03/03 03:58:59;;;;;;;11.30;5.18;;;;;;;-3.05;100.00;102715.75;5072735;28;20090;-75
2023/03/03 04:01:25;;;;;;;9.38;5.88;;;;;;;-3.10;100.00;102714.91;5055809;28;20460;-75
2023/03/03 04:03:51;;;;;;;9.07;5.43;;;;;;;-3.14;100.00;102716.63;5072735;28;20082;-76
2023/03/03 04:06:16;;;;;;;9.15;5.57;;;;;;;-3.17;100.00;102721.00;5073003;28;20457;-75
2023/03/03 04:08:41;;;;;;;8.90;5.20;;;;;;;-3.22;100.00;102714.06;5073322;28;20028;-76
2023/03/03 04:11:07;;;;;;;11.73;5.03;;;;;;;-3.24;100.00;102720.13;5072972;28;20140;-76
2023/03/03 04:13:33;;;;;;;7.72;5.30;;;;;;;-3.24;100.00;102722.75;5055661;28;20508;-76
2023/03/03 04:16:00;;;;;;;7.95;4.82;;;;;;;-3.29;100.00;102714.94;5072419;28;20033;-75
2023/03/03 04:18:25;;;;;;;14.40;6.22;;;;;;;-3.32;100.00;102729.72;5054751;28;20030;-75
2023/03/03 04:20:51;;;;;;;9.20;5.20;;;;;;;-3.37;100.00;102727.13;5038681;28;20024;-76
2023/03/03 04:23:18;;;;;;;9.02;5.38;;;;;;;-3.41;100.00;102728.00;5073096;28;20119;-75
2023/03/03 04:25:48;;;;;;;9.15;5.40;;;;;;;-3.42;100.00;102727.13;5072677;28;20438;-76
2023/03/03 04:28:15;;;;;;;12.35;5.95;;;;;;;-3.44;100.00;102725.41;5073039;28;20043;-75
2023/03/03 04:30:41;;;;;;;9.15;5.90;;;;;;;-3.48;100.00;102731.47;5072698;28;20496;-76
2023/03/03 04:33:06;;;;;;;9.10;5.50;;;;;;;-3.55;100.00;102728.03;5072945;28;20028;-75
2023/03/03 04:35:32;;;;;;;12.55;5.47;;;;;;;-3.61;100.00;102731.50;5072739;28;20350;-75
2023/03/03 04:37:57;;;;;;;10.95;6.05;;;;;;;-3.65;100.00;102731.50;5072554;28;20035;-75
2023/03/03 04:40:23;;;;;;;10.38;6.43;;;;;;;-3.73;100.00;102727.16;5074041;28;20036;-75
2023/03/03 04:42:48;;;;;;;9.90;6.07;;;;;;;-3.77;100.00;102735.84;5076548;28;20090;-75
2023/03/03 04:45:14;;;;;;;12.52;7.13;;;;;;;-3.81;100.00;102734.09;5076534;28;20089;-75
2023/03/03 04:47:39;;;;;;;16.55;6.93;;;;;;;-3.77;100.00;102737.56;5076987;28;20082;-75
2023/03/03 04:50:05;;;;;;;13.13;7.13;;;;;;;-3.75;100.00;102725.44;5076605;28;20025;-75
2023/03/03 04:52:30;;;;;;;11.75;6.90;;;;;;;-3.64;100.00;102735.81;5076678;28;20435;-75
2023/03/03 04:54:56;;;;;;;18.92;9.30;;;;;;;-3.53;100.00;102731.47;5076804;28;20412;-76
2023/03/03 04:57:21;;;;;;;20.65;9.35;;;;;;;-3.45;100.00;102736.66;5076267;28;20133;-75
2023/03/03 04:59:47;;;;;;;19.27;9.98;;;;;;;-3.38;100.00;102736.66;5076133;28;20128;-76
2023/03/03 05:02:12;;;;;;;19.70;10.70;;;;;;;-3.29;100.00;102740.13;5076766;28;20131;-75
2023/03/03 05:04:37;;;;;;;23.35;11.13;;;;;;;-3.25;100.00;102740.09;5076160;28;20047;-75
2023/03/03 05:07:03;;;;;;;23.17;11.23;;;;;;;-3.19;100.00;102740.09;5076144;28;20078;-76
2023/03/03 05:09:29;;;;;;;28.42;12.63;;;;;;;-3.14;100.00;102736.63;5076525;28;20031;-76
2023/03/03 05:11:54;;;;;;;21.42;10.52;;;;;;;-3.09;100.00;102746.16;5076404;28;20358;-76
2023/03/03 05:14:20;;;;;;;20.85;10.55;;;;;;;-3.02;100.00;102746.97;5076712;28;20357;-74
2023/03/03 05:16:45;;;;;;;22.45;12.38;;;;;;;-2.95;100.00;102745.25;5075966;28;20116;-76
2023/03/03 05:19:11;;;;;;;23.85;11.82;;;;;;;-2.87;100.00;102748.66;5076013;28;20036;-76
2023/03/03 05:21:41;;;;;;;32.15;13.23;;;;;;;-2.77;100.00;102746.91;5058622;28;20380;-76
2023/03/03 05:24:07;;;;;;;26.83;12.13;;;;;;;-2.70;100.00;102746.88;5058641;28;20032;-75
2023/03/03 05:26:33;;;;;;;28.42;13.20;;;;;;;-2.61;100.00;102751.19;5076517;28;20154;-75
2023/03/03 05:28:58;;;;;;;31.63;13.75;;;;;;;-2.52;100.00;102750.28;5075734;28;20033;-75
2023/03/03 05:31:26;;;;;;;33.88;13.35;;;;;;;-2.46;100.00;102751.94;5075742;28;20499;-75
2023/03/03 05:33:51;;;;;;;32.38;14.10;;;;;;;-2.38;100.00;102745.81;5076287;28;20111;-75
2023/03/03 05:36:16;;;;;;;29.85;13.88;;;;;;;-2.33;100.00;102754.50;5075553;28;20132;-75
2023/03/03 05:38:42;;;;;;;33.35;14.10;;;;;;;-2.25;100.00;102754.44;5075331;28;20544;-75
2023/03/03 05:41:07;;;;;;;37.97;14.70;;;;;;;-2.21;100.00;102745.75;5075509;28;20036;-76
2023/03/03 05:43:32;;;;;;;37.08;15.30;;;;;;;-2.17;100.00;102739.59;5075554;28;20036;-75
2023/03/03 05:45:58;;;;;;;43.90;16.67;;;;;;;-2.09;100.00;102741.28;5075494;28;20145;-75
2023/03/03 05:48:23;;;;;;;38.30;16.70;;;;;;;-2.04;100.00;102749.97;5075514;28;20035;-76
2023/03/03 05:50:49;;;;;;;36.70;15.85;;;;;;;-2.00;100.00;102742.09;5040885;28;20035;-76
2023/03/03 05:53:14;;;;;;;36.28;16.10;;;;;;;-1.95;100.00;102744.69;5075357;28;20491;-75
2023/03/03 05:55:40;;;;;;;34.35;16.25;;;;;;;-1.90;100.00;102750.72;5075335;28;20465;-76
2023/03/03 05:58:05;;;;;;;35.30;15.90;;;;;;;-1.87;100.00;102750.69;5075673;28;20060;-74
2023/03/03 06:00:31;;;;;;;36.97;17.58;;;;;;;-1.85;100.00;102748.94;5075313;28;20544;-74
2023/03/03 06:02:56;;;;;;;34.88;16.65;;;;;;;-1.83;100.00;102752.41;5075398;28;20545;-74
2023/03/03 06:05:21;;;;;;;39.22;18.15;;;;;;;-1.81;100.00;102752.38;5075122;28;20074;-75
2023/03/03 06:07:47;;;;;;;34.33;16.83;;;;;;;-1.79;100.00;102755.88;5056823;28;20040;-75
2023/03/03 06:10:12;;;;;;;36.50;17.23;;;;;;;-1.79;100.00;102750.66;5074969;28;20081;-75
2023/03/03 06:12:38;;;;;;;33.67;17.55;;;;;;;-1.78;100.00;102747.16;5075049;28;20063;-74
2023/03/03 06:15:05;;;;;;;45.53;19.77;;;;;;;-1.75;100.00;102754.94;5075034;28;20496;-75
2023/03/03 06:17:30;;;;;;;42.63;17.73;;;;;;;-1.76;100.00;102766.28;5075173;28;20354;-75
2023/03/03 06:19:55;;;;;;;38.47;17.67;;;;;;;-1.75;100.00;102764.53;5074553;28;20036;-75
2023/03/03 06:22:21;;;;;;;31.88;16.30;;;;;;;-1.75;100.00;102759.31;5074736;28;20054;-74
2023/03/03 06:24:46;;;;;;;30.70;16.17;;;;;;;-1.73;100.00;102765.38;5074680;28;20083;-76
2023/03/03 06:27:11;;;;;;;51.17;17.42;;;;;;;-1.73;100.00;102765.38;5074352;28;20068;-76
2023/03/03 06:29:37;;;;;;;35.33;16.77;;;;;;;-1.75;100.00;102773.22;5074703;28;20029;-77
2023/03/03 06:32:02;;;;;;;49.10;17.02;;;;;;;-1.72;100.00;102775.81;5075068;28;20024;-76
2023/03/03 06:34:28;;;;;;;30.48;15.90;;;;;;;-1.71;100.00;102777.53;5075104;28;20040;-75
2023/03/03 06:36:53;;;;;;;34.42;16.95;;;;;;;-1.68;100.00;102774.06;5074737;28;20032;-76
2023/03/03 06:39:19;;;;;;;40.05;17.20;;;;;;;-1.66;100.00;102783.56;5074317;28;20031;-76
2023/03/03 06:41:44;;;;;;;33.05;16.00;;;;;;;-1.66;100.00;102778.34;5074955;28;20097;-76
2023/03/03 06:44:10;;;;;;;35.20;17.13;;;;;;;-1.63;100.00;102785.31;5074587;28;20071;-76
2023/03/03 06:46:36;;;;;;;36.38;16.08;;;;;;;-1.62;100.00;102781.81;5074294;28;20037;-75
2023/03/03 06:49:02;;;;;;;37.15;16.63;;;;;;;-1.57;100.00;102794.84;5056538;28;20033;-76
2023/03/03 06:51:33;;;;;;;39.90;17.33;;;;;;;-1.54;100.00;102787.84;5056433;28;20035;-76
2023/03/03 06:54:05;;;;;;;46.58;16.08;;;;;;;-1.49;100.00;102795.66;5074120;28;20028;-76
2023/03/03 06:56:34;;;;;;;;;;;;;;;-1.45;100.00;102794.72;5074931;28;20036;-75
2023/03/03 06:59:01;;;;;;;36.08;15.38;;;;;;;-1.41;100.00;102793.81;5074093;28;19913;-75
2023/03/03 07:01:34;;;;;;;28.70;14.63;;;;;;;-1.38;100.00;102799.00;5074308;28;20065;-75
2023/03/03 07:03:59;;;;;;;33.80;16.33;;;;;;;-1.33;100.00;102806.81;5073569;28;20036;-76
2023/03/03 07:06:27;;;;;;;60.78;16.50;;;;;;;-1.28;100.00;102807.66;5056042;28;20033;-76
2023/03/03 07:08:53;;;;;;;40.60;16.30;;;;;;;-1.23;100.00;102803.22;5056245;28;20115;-76
2023/03/03 07:11:23;;;;;;;33.47;16.48;;;;;;;-1.17;100.00;102802.31;5056578;28;20048;-75
2023/03/03 07:13:53;;;;;;;54.05;15.77;;;;;;;-1.13;100.00;102804.03;5055823;28;20494;-76
2023/03/03 07:16:25;;;;;;;39.57;15.20;;;;;;;-1.08;100.00;102803.06;5073456;28;20441;-76
2023/03/03 07:18:54;;;;;;;35.22;15.48;;;;;;;-1.03;100.00;102810.00;5074156;28;20738;-76
2023/03/03 07:21:35;;;;;;;80.18;15.15;;;;;;;-1.00;100.00;102813.47;5073624;28;20058;-76
2023/03/03 07:24:15;;;;;;;36.28;14.30;;;;;;;-0.97;100.00;102813.44;5056164;28;20111;-75
2023/03/03 07:26:40;;;;;;;77.80;14.18;;;;;;;-0.92;100.00;102818.59;5074083;28;20116;-75
2023/03/03 07:29:17;;;;;;;32.28;13.80;;;;;;;-0.86;100.00;102820.28;5073488;28;20450;-75
2023/03/03 07:31:46;;;;;;;32.80;13.70;;;;;;;-0.84;100.00;102822.00;5073579;28;20024;-75
2023/03/03 07:34:34;;;;;;;52.17;12.57;;;;;;;-0.80;100.00;102822.84;5073848;28;20461;-75
2023/03/03 07:37:12;;;;;;;23.20;12.75;;;;;;;-0.78;100.00;102827.16;5065300;28;20040;-74
2023/03/03 07:39:39;;;;;;;35.33;13.25;;;;;;;-0.72;100.00;102820.97;5073337;28;20029;-75
2023/03/03 07:42:13;;;;;;;21.23;12.45;;;;;;;-0.66;100.00;102826.13;5073327;28;20102;-75
2023/03/03 07:44:39;;;;;;;39.08;12.73;;;;;;;-0.58;100.00;102829.53;5073154;28;20103;-74
2023/03/03 07:47:25;;;;;;;28.65;13.32;;;;;;;-0.49;100.00;102827.69;5073277;28;20028;-75
2023/03/03 07:49:53;;;;;;;45.92;13.35;;;;;;;-0.40;100.00;102830.22;5073634;28;20021;-75
2023/03/03 07:52:26;;;;;;;62.15;14.48;;;;;;;-0.32;100.00;102830.09;5073663;28;20032;-75
2023/03/03 07:54:54;;;;;;;31.48;13.40;;;;;;;-0.30;100.00;102831.81;5072979;28;20029;-75
2023/03/03 07:57:33;;;;;;;28.45;12.80;;;;;;;-0.23;100.00;102833.44;5055309;28;20131;-74
2023/03/03 08:00:20;;;;;;;36.97;13.15;;;;;;;-0.15;100.00;102833.38;5073004;28;20452;-74
2023/03/03 08:03:03;;;;;;;38.72;12.93;;;;;;;-0.06;100.00;102840.19;5073160;28;20380;-75
2023/03/03 08:05:35;;;;;;;78.18;14.70;;;;;;;-0.04;100.00;102846.31;5072779;28;20103;-74
2023/03/03 08:08:29;;;;;;;93.68;13.82;;;;;;;-0.06;100.00;102845.44;5073128;28;20074;-75
2023/03/03 08:10:59;;;;;;;43.75;12.85;;;;;;;0.03;100.00;102844.44;5055195;28;20025;-74
2023/03/03 08:13:37;;;;;;;67.25;13.40;;;;;;;0.12;100.00;102849.53;5072950;28;20136;-74
2023/03/03 08:16:08;;;;;;;39.13;13.02;;;;;;;0.24;100.00;102857.25;5072417;28;20469;-75
2023/03/03 08:18:47;;;;;;;55.67;13.90;;;;;;;0.45;100.00;102857.78;5054597;28;20032;-75
2023/03/03 08:21:18;;;;;;;55.58;15.15;;;;;;;0.63;100.00;102860.13;5072831;28;20036;-75
2023/03/03 08:23:44;;;;;;;35.65;14.23;;;;;;;0.83;100.00;102866.78;5073010;28;20044;-74
2023/03/03 08:26:13;;;;;;;58.20;14.70;;;;;;;0.99;100.00;102868.25;5054688;28;20469;-75
2023/03/03 08:28:39;;;;;;;35.65;14.13;;;;;;;1.20;100.00;102872.22;5072412;28;20064;-74
2023/03/03 08:31:04;;;;;;;41.83;13.52;;;;;;;1.34;100.00;102878.97;5054671;28;20071;-74
2023/03/03 08:33:30;;;;;;;38.92;13.50;;;;;;;1.40;100.00;102879.72;5072640;28;20043;-75
2023/03/03 08:35:55;;;;;;;35.90;13.30;;;;;;;1.40;100.00;102882.34;5072315;28;20115;-75
2023/03/03 08:38:21;;;;;;;27.27;12.50;;;;;;;1.45;100.00;102881.38;5054661;28;20455;-77
2023/03/03 08:40:49;;;;;;;33.60;13.05;;;;;;;1.52;100.00;102883.00;5072561;28;20457;-73
2023/03/03 08:43:20;;;;;;;47.92;14.55;;;;;;;1.59;100.00;102889.84;5054615;28;20179;-73
2023/03/03 08:45:47;;;;;;;31.35;13.63;;;;;;;1.69;100.00;102886.16;5072408;28;20126;-73
2023/03/03 08:48:14;;;;;;;36.20;13.93;;;;;;;1.75;100.00;102883.38;5054597;28;20187;-73
2023/03/03 08:50:40;;;;;;;34.47;13.90;;;;;;;1.86;100.00;102891.03;5072539;28;20038;-74
2023/03/03 08:53:06;;;;;;;26.35;12.63;;;;;;;1.96;100.00;102889.09;5072502;28;20029;-75
2023/03/03 08:55:31;;;;;;;54.47;12.15;;;;;;;1.99;100.00;102890.78;5072470;28;20101;-74
2023/03/03 08:57:57;;;;;;;27.30;11.63;;;;;;;2.02;100.00;102894.22;5072328;28;20434;-73
2023/03/03 09:00:23;;;;;;;35.25;11.35;;;;;;;2.07;100.00;102894.97;5072013;28;20056;-73
2023/03/03 09:02:50;;;;;;;48.35;13.20;;;;;;;2.21;100.00;102896.41;5072943;28;20029;-76
2023/03/03 09:05:17;;;;;;;128.23;12.52;;;;;;;2.29;100.00;102899.75;5072431;28;20477;-74
2023/03/03 09:07:43;;;;;;;23.23;11.70;;;;;;;2.38;100.00;102899.53;5054254;28;20400;-75
2023/03/03 09:10:11;;;;;;;37.72;12.13;;;;;;;2.50;100.00;102898.38;5072781;28;20166;-74
2023/03/03 09:12:42;;;;;;;23.15;11.35;;;;;;;2.57;100.00;102894.72;5072008;28;20024;-74
2023/03/03 09:15:27;;;;;;;23.90;10.77;;;;;;;2.67;100.00;102892.69;5072055;28;20060;-75
2023/03/03 09:17:56;;;;;;;30.52;10.88;;;;;;;2.86;100.00;102890.50;5072373;28;20123;-75
2023/03/03 09:20:37;;;;;;;22.33;10.50;;;;;;;3.14;100.00;102897.69;5072125;28;20111;-74
2023/03/03 09:23:35;;;;;;;18.63;10.43;;;;;;;3.34;100.00;102892.75;5054175;28;20032;-75
2023/03/03 09:26:26;;;;;;;26.48;9.05;;;;;;;3.37;100.00;102885.66;5073311;28;20376;-75
2023/03/03 09:29:12;;;;;;;15.70;8.88;;;;;;;3.51;100.00;102892.28;5075719;28;20028;-76
2023/03/03 09:31:43;;;;;;;15.57;9.65;;;;;;;3.65;100.00;102891.03;5057854;28;20120;-75
2023/03/03 09:34:41;;;;;;;13.65;9.07;;;;;;;3.84;100.00;102896.63;5075495;28;20125;-76
2023/03/03 09:37:25;;;;;;;14.73;9.70;;;;;;;4.12;100.00;102886.13;5064574;28;20101;-75
2023/03/03 09:39:52;;;;;;;13.13;8.57;;;;;;;4.21;100.00;102888.47;5075708;28;20039;-75
2023/03/03 09:42:47;;;;;;;16.23;9.18;;;;;;;4.14;100.00;102892.19;5075670;28;20032;-75
2023/03/03 09:45:25;;;;;;;16.60;9.00;;;;;;;4.32;100.00;102888.13;5075645;28;20024;-75
2023/03/03 09:48:17;;;;;;;17.60;8.60;;;;;;;4.37;100.00;102883.59;5075667;28;20035;-75
2023/03/03 09:50:49;;;;;;;12.23;7.95;;;;;;;5.01;100.00;102886.78;5075406;28;20025;-75
2023/03/03 09:53:30;;;;;;;10.55;7.60;;;;;;;5.91;100.00;102887.03;5075569;28;20471;-75
2023/03/03 09:56:06;;;;;;;11.80;7.40;;;;;;;6.10;100.00;102895.16;5075082;28;20027;-75
2023/03/03 09:59:04;;;;;;;9.73;6.88;;;;;;;6.77;100.00;102888.09;5075710;28;20016;-78
2023/03/03 10:02:05;;;;;;;14.32;6.43;;;;;;;7.70;100.00;102887.56;5075240;28;20090;-78
2023/03/03 10:04:37;;;;;;;;;;;;;;;8.05;100.00;102883.25;5075472;28;20044;-74
2023/03/03 10:07:31;;;;;;;8.88;6.35;;;;;;;8.56;100.00;102875.53;5075329;28;19912;-73
2023/03/03 10:09:59;;;;;;;11.35;7.15;;;;;;;8.24;100.00;102885.03;5049475;28;20032;-72
2023/03/03 10:12:32;;;;;;;9.57;6.07;;;;;;;9.33;100.00;102884.91;5074856;28;20100;-73
2023/03/03 10:15:03;;;;;;;9.00;5.97;;;;;;;11.20;100.00;102881.53;5075025;28;20024;-73
2023/03/03 10:17:43;;;;;;;9.18;6.10;;;;;;;11.49;100.00;102881.53;5074889;28;20032;-73
2023/03/03 10:20:21;;;;;;;9.05;5.70;;;;;;;11.39;100.00;102886.56;5075116;28;20036;-72
2023/03/03 10:23:01;;;;;;;11.60;5.32;;;;;;;11.97;100.00;102880.28;5075076;28;20453;-75
2023/03/03 10:25:51;;;;;;;10.70;4.97;;;;;;;12.96;82.66;102878.25;5057309;28;20408;-72
2023/03/03 10:28:20;;;;;;;7.78;5.13;;;;;;;13.66;70.27;102872.50;5057383;28;20032;-72
2023/03/03 10:30:48;;;;;;;6.38;4.28;;;;;;;14.24;66.19;102877.22;5056740;28;20028;-73
2023/03/03 10:33:44;;;;;;;5.20;4.00;;;;;;;14.37;64.64;102864.63;5074575;28;20036;-73
2023/03/03 10:36:27;;;;;;;7.82;3.92;;;;;;;14.42;60.23;102869.66;5074995;28;20431;-72
2023/03/03 10:39:26;;;;;;;6.40;3.90;;;;;;;14.53;61.42;102877.75;5073459;28;20056;-74
2023/03/03 10:41:54;;;;;;;5.30;3.50;;;;;;;15.25;58.51;102875.88;5075112;28;20024;-74
2023/03/03 10:44:30;;;;;;;8.50;3.47;;;;;;;15.33;54.98;102881.50;5074541;28;20028;-73
2023/03/03 10:46:58;;;;;;;4.53;3.03;;;;;;;15.47;53.15;102878.59;5075204;28;20369;-73
2023/03/03 10:49:46;;;;;;;4.57;3.00;;;;;;;15.35;53.92;102874.19;5074336;28;20035;-74
2023/03/03 10:52:14;;;;;;;4.40;2.85;;;;;;;14.94;53.85;102875.59;5074610;28;20038;-75
2023/03/03 10:54:58;;;;;;;6.05;2.90;;;;;;;14.74;54.49;102872.59;5074094;28;20024;-73
2023/03/03 10:57:54;;;;;;;3.63;2.53;;;;;;;13.35;56.11;102871.13;5074305;28;20087;-77
2023/03/03 11:00:40;;;;;;;6.53;2.90;;;;;;;12.53;62.69;102868.66;5051840;28;20052;-75
2023/03/03 11:03:41;;;;;;;5.38;2.70;;;;;;;11.93;64.12;102875.25;5074712;28;20032;-74
2023/03/03 11:06:21;;;;;;;11.48;3.20;;;;;;;10.86;74.31;102878.22;5074434;28;20115;-73
2023/03/03 11:09:04;;;;;;;3.88;2.58;;;;;;;10.04;81.05;102869.56;5073941;28;20496;-73
2023/03/03 11:11:58;;;;;;;6.65;3.30;;;;;;;10.58;86.81;102866.53;5073657;28;20495;-75
2023/03/03 11:14:35;;;;;;;5.03;2.80;;;;;;;11.15;80.78;102867.59;5056680;28;20048;-75
2023/03/03 11:17:15;;;;;;;7.68;2.92;;;;;;;12.00;72.05;102865.88;5073802;28;20086;-75
2023/03/03 11:19:54;;;;;;;4.57;2.72;;;;;;;12.62;60.47;102854.69;5073932;28;20480;-76
2023/03/03 11:22:36;;;;;;;7.70;3.03;;;;;;;12.11;63.10;102860.72;5073795;28;20033;-73
2023/03/03 11:25:09;;;;;;;7.68;3.00;;;;;;;11.57;69.53;102855.22;5074317;28;20111;-74